Time;durP1;ratioP1;P1;durP2;ratioP2;P2;SDS_P1;SDS_P2;PMS_P1;PMS_P2;Temp;Humidity;BMP_temperature;BMP_pressure;BME280_temperature;BME280_humidity;BME280_pressure;Samples;Min_cycle;Max_cycle;Signal;HPM_P1;HPM_P2
2023/03/01 00:01:04;;;;;;;18.50;15.10;;;-1.10;69.60;;;-1.63;67.19;98851.22;5089161;28;20485;-70
2023/03/01 00:03:33;;;;;;;15.70;12.50;;;-1.10;69.50;;;-1.72;66.94;98859.84;5111678;28;20467;-69
2023/03/01 00:06:01;;;;;;;22.43;15.50;;;-1.10;69.50;;;-1.74;67.51;98852.03;5095470;28;20521;-68
2023/03/01 00:08:29;;;;;;;21.30;14.60;;;-1.10;69.70;;;-1.77;67.88;98851.44;5091728;28;20492;-70
2023/03/01 00:11:07;;;;;;;25.90;14.60;;;-1.10;69.60;;;-1.78;67.30;98850.56;5085354;28;20575;-70
2023/03/01 00:13:35;;;;;;;23.40;15.00;;;-1.10;69.60;;;-1.84;66.96;98840.44;5077311;28;21463;-70
2023/03/01 00:16:04;;;;;;;26.60;14.20;;;-1.10;69.60;;;-1.76;67.46;98853.09;5087888;28;20481;-69
2023/03/01 00:18:31;;;;;;;26.70;14.87;;;-1.10;69.50;;;-1.69;66.91;98853.50;5083558;28;20586;-68
2023/03/01 00:20:59;;;;;;;21.10;13.77;;;-1.10;69.50;;;-1.66;67.25;98859.41;5102337;28;20942;-69
2023/03/01 00:23:26;;;;;;;19.80;14.20;;;-1.20;69.40;;;-2.28;67.48;98771.31;5089485;28;20605;-71
2023/03/01 00:25:54;;;;;;;19.77;13.50;;;-1.20;69.60;;;-1.83;67.27;98863.31;5083324;28;20459;-71
2023/03/01 00:28:23;;;;;;;19.67;13.80;;;-1.20;69.80;;;-1.74;67.65;98862.66;5114925;27;20531;-70
2023/03/01 00:30:50;;;;;;;22.87;14.17;;;-1.20;69.80;;;-1.92;67.29;98853.41;5091241;28;20457;-72
2023/03/01 00:33:17;;;;;;;19.37;14.40;;;-1.30;69.80;;;-1.78;67.85;98861.16;5096802;28;20552;-73
2023/03/01 00:35:45;;;;;;;21.80;13.80;;;-1.20;70.00;;;-1.88;67.51;98857.53;5097335;28;20446;-70
2023/03/01 00:38:12;;;;;;;18.93;14.27;;;-1.30;69.80;;;-1.88;67.97;98845.13;5086609;28;20451;-71
2023/03/01 00:40:39;;;;;;;22.33;14.07;;;-1.20;69.90;;;-1.89;67.41;98850.56;5093413;28;20523;-70
2023/03/01 00:43:07;;;;;;;24.10;13.77;;;-1.30;69.80;;;-1.88;67.50;98855.72;5095551;28;21226;-69
2023/03/01 00:45:35;;;;;;;26.13;15.93;;;-1.30;70.00;;;-1.77;67.76;98848.78;5106134;27;20456;-69
2023/03/01 00:48:02;;;;;;;19.77;14.40;;;-1.30;69.90;;;-1.86;67.12;98852.97;5092939;28;20515;-70
2023/03/01 00:50:30;;;;;;;23.40;15.27;;;-1.20;69.80;;;-1.79;67.76;98851.53;5077860;28;20463;-69
2023/03/01 00:52:57;;;;;;;21.77;14.37;;;-1.30;69.80;;;-1.94;67.69;98852.69;5095157;28;20459;-71
2023/03/01 00:55:25;;;;;;;18.33;13.53;;;-1.30;69.80;;;-1.90;67.82;98843.53;5098345;28;20464;-70
2023/03/01 00:57:53;;;;;;;22.27;15.03;;;-1.30;69.90;;;-1.91;67.68;98844.50;5090869;28;20461;-70
2023/03/01 01:00:21;;;;;;;22.30;14.80;;;-1.30;69.90;;;-1.89;67.67;98842.59;5087881;28;20478;-69
2023/03/01 01:02:50;;;;;;;24.87;15.90;;;-1.30;69.80;;;-1.97;67.44;98823.78;5097158;28;20519;-70
2023/03/01 01:05:20;;;;;;;23.43;15.03;;;-1.30;69.80;;;-1.87;67.73;98816.84;5095591;28;20446;-70
2023/03/01 01:07:47;;;;;;;24.23;15.80;;;-1.20;69.60;;;-1.91;67.16;98820.66;5091001;28;20463;-71
2023/03/01 01:10:20;;;;;;;24.33;14.60;;;-1.20;69.50;;;-1.82;66.84;98813.81;5103123;27;20449;-71
2023/03/01 01:12:47;;;;;;;20.30;14.37;;;-1.20;69.50;;;-1.77;67.58;98817.81;5082176;28;20462;-70
2023/03/01 01:15:16;;;;;;;22.63;14.60;;;-1.20;69.60;;;-1.86;67.53;98806.09;5094938;28;20454;-70
2023/03/01 01:17:43;;;;;;;25.00;14.40;;;-1.20;69.60;;;-1.78;67.33;98807.34;5106888;28;20477;-71
2023/03/01 01:20:13;;;;;;;24.23;14.80;;;-1.20;69.50;;;-1.88;67.75;98809.84;5118175;27;20527;-71
2023/03/01 01:22:40;;;;;;;22.80;12.97;;;-1.20;69.50;;;-1.94;67.99;98807.66;5094287;28;20634;-68
2023/03/01 01:25:08;;;;;;;20.23;14.73;;;-1.30;69.70;;;-1.81;67.01;98797.00;5091658;28;20521;-70
2023/03/01 01:27:36;;;;;;;23.37;14.93;;;-1.20;69.60;;;-1.92;67.51;98811.03;5091467;28;20458;-69
2023/03/01 01:30:04;;;;;;;24.43;14.57;;;-1.30;69.70;;;-1.96;67.36;98788.38;5098991;28;20554;-68
2023/03/01 01:32:31;;;;;;;19.17;13.50;;;-1.30;69.60;;;-1.97;67.54;98797.28;5096704;28;20437;-69
2023/03/01 01:34:58;;;;;;;26.83;16.67;;;-1.30;69.60;;;-1.99;67.45;98784.16;5096678;28;20537;-69
2023/03/01 01:37:33;;;;;;;25.27;14.80;;;-1.30;69.70;;;-2.01;67.87;98779.00;5090286;28;21351;-68
2023/03/01 01:40:01;;;;;;;26.30;15.83;;;-1.30;69.70;;;-2.04;68.01;98781.03;5104369;27;20458;-68
2023/03/01 01:42:28;;;;;;;25.70;15.47;;;-1.30;69.80;;;-2.00;67.69;98788.63;5090081;28;20449;-69
2023/03/01 01:45:27;;;;;;;24.80;15.00;;;-1.30;69.80;;;-2.01;67.72;98779.00;5096490;28;20505;-69
2023/03/01 01:47:56;;;;;;;20.67;14.17;;;-1.30;69.80;;;-1.96;67.38;98783.94;5081535;28;20451;-70
2023/03/01 01:50:24;;;;;;;23.17;14.27;;;-1.30;69.70;;;-2.02;67.67;98768.50;5090909;28;20535;-69
2023/03/01 01:52:55;;;;;;;22.43;13.93;;;-1.30;69.70;;;-2.00;67.60;98774.53;5090218;28;20454;-69
2023/03/01 01:55:27;;;;;;;24.40;14.80;;;-1.30;69.70;;;-1.98;67.89;98775.25;5084284;28;20468;-71
2023/03/01 01:57:58;;;;;;;21.40;14.33;;;-1.30;69.60;;;-2.02;67.02;98753.47;5087766;28;20539;-68
2023/03/01 02:00:28;;;;;;;24.00;14.80;;;-1.30;69.60;;;-2.04;67.76;98759.84;5088277;28;20979;-69
2023/03/01 02:03:01;;;;;;;23.83;14.20;;;-1.30;69.50;;;-1.99;67.91;98760.31;5088825;28;20797;-70
2023/03/01 02:05:37;;;;;;;22.33;15.13;;;-1.30;69.50;;;-2.03;67.32;98757.09;5102858;27;20747;-70
2023/03/01 02:08:07;;;;;;;25.00;13.93;;;-1.30;69.60;;;-2.06;67.72;98752.00;5096886;27;20548;-69
2023/03/01 02:10:35;;;;;;;23.30;15.57;;;-1.30;69.50;;;-2.05;67.91;98758.16;5078591;28;20485;-70
2023/03/01 02:13:03;;;;;;;20.93;13.03;;;-1.40;69.50;;;-1.98;67.22;98747.94;5083954;28;20515;-71
2023/03/01 02:15:35;;;;;;;24.83;15.53;;;-1.30;69.60;;;-2.12;67.72;98747.19;5094684;28;20456;-70
2023/03/01 02:18:03;;;;;;;23.00;14.23;;;-1.40;69.60;;;-2.08;67.91;98745.16;5090632;28;20945;-71
2023/03/01 02:20:39;;;;;;;21.83;15.67;;;-1.30;69.60;;;-2.05;67.95;98742.25;5106471;28;20568;-70
2023/03/01 02:23:08;;;;;;;20.53;14.20;;;-1.30;69.50;;;-2.09;67.95;98732.88;5090475;28;20518;-71
2023/03/01 02:25:46;;;;;;;23.63;14.33;;;-1.30;69.60;;;-2.14;67.66;98739.34;5120547;27;20530;-70
2023/03/01 02:28:26;;;;;;;22.17;14.40;;;-1.30;69.50;;;-2.04;67.75;98734.22;5092103;28;20975;-70
2023/03/01 02:33:40;;;;;;;24.87;14.40;;;-1.30;69.40;;;-2.03;67.32;98733.25;5098244;28;20471;-69
2023/03/01 02:36:13;;;;;;;25.77;15.83;;;-1.30;69.50;;;-2.10;67.93;98734.66;5088775;28;20465;-69
2023/03/01 02:38:41;;;;;;;21.90;14.73;;;-1.30;69.50;;;-2.03;67.52;98730.59;5088427;28;20450;-70
2023/03/01 02:41:10;;;;;;;22.80;15.90;;;-1.40;69.50;;;-2.03;68.00;98735.88;5092809;28;20526;-70
2023/03/01 02:43:39;;;;;;;23.60;14.80;;;-1.40;69.60;;;-2.09;67.77;98728.41;5083005;28;20503;-70
2023/03/01 02:46:09;;;;;;;21.07;13.37;;;-1.40;69.60;;;-2.10;68.09;98726.72;5078017;28;20453;-71
2023/03/01 02:48:46;;;;;;;20.80;14.80;;;-1.40;69.60;;;-2.02;67.22;98713.75;5079600;28;20979;-71
2023/03/01 02:51:44;;;;;;;31.80;15.37;;;-1.40;69.60;;;-2.11;67.69;98717.09;5090444;28;20451;-70
2023/03/01 02:54:23;;;;;;;20.70;13.83;;;-1.40;69.60;;;-2.15;67.84;98715.63;5091590;28;20479;-70
2023/03/01 02:56:51;;;;;;;22.43;15.00;;;-1.40;69.60;;;-2.12;68.13;98707.44;5093509;27;20589;-69
2023/03/01 02:59:23;;;;;;;26.33;15.40;;;-1.50;69.60;;;-2.08;68.09;98711.53;5092509;28;20462;-69
2023/03/01 03:01:51;;;;;;;21.93;15.77;;;-1.50;69.70;;;-2.14;67.61;98710.22;5076670;28;20471;-68
2023/03/01 03:04:20;;;;;;;21.27;14.03;;;-1.50;69.90;;;-2.14;67.97;98706.72;5084273;28;20448;-70
2023/03/01 03:06:51;;;;;;;21.70;15.20;;;-1.60;69.80;;;-2.23;67.80;98704.78;5080074;28;21171;-69
2023/03/01 03:09:19;;;;;;;27.30;15.67;;;-1.50;69.90;;;-2.15;67.98;98707.69;5085611;28;20444;-70
2023/03/01 03:11:47;;;;;;;25.20;15.23;;;-1.50;70.00;;;-2.50;67.61;98663.56;5077416;28;20442;-69
2023/03/01 03:14:17;;;;;;;24.60;15.33;;;-1.60;69.90;;;-2.11;68.15;98711.78;5083698;28;22609;-69
2023/03/01 03:16:48;;;;;;;25.50;16.07;;;-1.60;69.90;;;-2.24;68.18;98689.84;5107245;27;20528;-69
2023/03/01 03:19:16;;;;;;;26.27;14.80;;;-1.60;69.90;;;-2.35;67.74;98683.59;5092410;28;20951;-69
2023/03/01 03:21:44;;;;;;;27.23;15.20;;;-1.60;70.00;;;-2.30;68.28;98702.59;5092450;28;20457;-69
2023/03/01 03:24:11;;;;;;;22.63;14.83;;;-1.70;70.00;;;-2.35;68.54;98696.81;5087645;28;20490;-69
2023/03/01 03:26:38;;;;;;;25.60;15.67;;;-1.70;70.00;;;-2.37;68.52;98706.66;5077952;28;21078;-67
2023/03/01 03:29:05;;;;;;;24.43;14.43;;;-1.70;70.10;;;-2.37;68.46;98696.06;5072763;28;21194;-69
2023/03/01 03:31:33;;;;;;;22.93;14.63;;;-1.70;70.20;;;-2.24;68.36;98692.50;5078720;28;21208;-68
2023/03/01 03:34:01;;;;;;;24.67;14.93;;;-1.80;70.60;;;-2.26;67.66;98697.06;5087443;28;20454;-70
2023/03/01 03:36:28;;;;;;;23.40;14.73;;;-1.70;70.30;;;-2.25;67.76;98694.31;5091033;28;20450;-69
2023/03/01 03:38:56;;;;;;;25.70;14.90;;;-1.80;70.20;;;-2.35;68.13;98694.19;5085572;28;20459;-68
2023/03/01 03:41:23;;;;;;;22.20;14.43;;;-1.80;70.20;;;-2.37;68.26;98696.06;5074379;28;20456;-68
2023/03/01 03:43:50;;;;;;;24.97;14.30;;;-1.90;70.40;;;-2.42;68.67;98695.59;5091698;28;21312;-69
2023/03/01 03:46:17;;;;;;;24.30;15.60;;;-1.90;70.50;;;-2.42;68.84;98699.09;5087784;28;20531;-69
2023/03/01 03:48:46;;;;;;;24.30;15.33;;;-2.00;70.60;;;-2.34;68.72;98695.88;5092825;28;20452;-69
2023/03/01 03:51:16;;;;;;;21.23;15.00;;;-1.90;70.70;;;-2.45;68.86;98694.00;5086361;28;20441;-68
2023/03/01 03:53:44;;;;;;;21.40;14.33;;;-1.90;70.50;;;-2.48;68.49;98682.84;5087136;28;20455;-71
2023/03/01 03:56:12;;;;;;;23.80;15.87;;;-1.90;70.40;;;-2.31;67.89;98690.34;5082268;28;20548;-69
2023/03/01 03:58:40;;;;;;;23.10;14.50;;;-1.80;70.50;;;-2.34;67.85;98689.72;5084655;28;20460;-69
2023/03/01 04:01:07;;;;;;;19.60;13.60;;;-1.90;70.30;;;-2.44;68.26;98690.41;5084174;28;20487;-69
2023/03/01 04:03:35;;;;;;;21.67;15.03;;;-1.90;70.40;;;-2.54;68.59;98689.44;5090885;28;20467;-69
2023/03/01 04:06:05;;;;;;;20.93;13.87;;;-2.00;70.60;;;-2.50;68.40;98688.22;5090191;28;20474;-69
2023/03/01 04:08:34;;;;;;;23.57;15.03;;;-1.90;70.60;;;-2.53;68.25;98690.25;5095229;28;20544;-69
2023/03/01 04:11:25;;;;;;;20.90;14.70;;;-1.90;70.40;;;-2.51;68.62;98685.69;5088826;28;20501;-70
2023/03/01 04:13:54;;;;;;;23.80;14.60;;;-1.90;70.30;;;-2.56;68.20;98686.88;5087026;28;20457;-70
2023/03/01 04:16:21;;;;;;;26.17;15.70;;;-1.90;70.20;;;-2.52;68.05;98702.53;5092923;28;20972;-69
2023/03/01 04:18:49;;;;;;;21.60;14.23;;;-1.90;70.10;;;-2.49;68.37;98702.31;5090785;28;21229;-72
2023/03/01 04:21:16;;;;;;;23.03;14.10;;;-1.90;70.10;;;-2.48;68.01;98704.00;5101560;28;20574;-71
2023/03/01 04:23:45;;;;;;;18.43;12.50;;;-1.90;70.10;;;-2.51;67.90;98704.22;5112507;27;20994;-70
2023/03/01 04:26:12;;;;;;;22.40;14.50;;;-1.90;70.20;;;-2.48;68.10;98704.00;5087271;28;20462;-72
2023/03/01 04:28:44;;;;;;;21.53;14.87;;;-2.00;70.20;;;-2.60;68.58;98706.59;5089910;28;20485;-72
2023/03/01 04:31:15;;;;;;;21.20;13.13;;;-2.10;70.40;;;-2.56;68.57;98702.75;5102046;28;20454;-70
2023/03/01 04:33:44;;;;;;;21.20;14.70;;;-2.00;70.50;;;-2.59;68.44;98695.06;5099651;28;20450;-68
2023/03/01 04:36:13;;;;;;;25.40;15.00;;;-2.10;70.30;;;-2.63;68.34;98714.78;5088869;28;20451;-70
2023/03/01 04:38:41;;;;;;;20.80;14.27;;;-2.10;70.30;;;-2.60;68.48;98711.03;5082329;28;20784;-70
2023/03/01 04:41:11;;;;;;;20.97;13.60;;;-2.10;70.30;;;-2.59;68.01;98713.59;5100517;28;20477;-69
2023/03/01 04:43:38;;;;;;;22.23;15.03;;;-2.00;70.30;;;-2.69;68.54;98715.22;5093284;28;20462;-68
2023/03/01 04:46:09;;;;;;;22.20;14.30;;;-2.10;70.10;;;-2.56;68.15;98708.06;5082714;28;20886;-68
2023/03/01 04:48:36;;;;;;;24.40;14.67;;;-2.10;70.30;;;-2.65;68.09;98703.47;5099051;28;20929;-68
2023/03/01 04:51:05;;;;;;;20.93;15.13;;;-2.10;70.30;;;-2.61;68.13;98710.22;5097301;28;20454;-69
2023/03/01 04:53:35;;;;;;;23.03;15.00;;;-2.10;70.40;;;-2.68;68.38;98708.97;5077565;28;20471;-70
2023/03/01 04:56:03;;;;;;;21.03;15.10;;;-2.20;70.40;;;-2.71;68.50;98706.56;5083842;28;20463;-69
2023/03/01 04:58:33;;;;;;;20.80;13.70;;;-2.30;70.50;;;-2.71;68.78;98706.56;5083821;28;20503;-71
2023/03/01 05:01:00;;;;;;;23.37;15.13;;;-2.30;70.60;;;-2.85;69.00;98697.00;5078405;28;20470;-72
2023/03/01 05:03:27;;;;;;;23.27;14.30;;;-2.40;71.00;;;-2.76;68.58;98706.88;5094674;28;21122;-71
2023/03/01 05:05:55;;;;;;;20.10;14.37;;;-2.30;71.10;;;-2.75;68.60;98710.38;5088899;28;21035;-72
2023/03/01 05:08:22;;;;;;;20.77;13.83;;;-2.40;71.00;;;-2.83;68.80;98710.09;5078141;28;20881;-70
2023/03/01 05:10:52;;;;;;;22.53;14.43;;;-2.40;71.10;;;-2.93;69.37;98709.94;5098448;28;20908;-70
2023/03/01 05:13:21;;;;;;;19.90;14.40;;;-2.50;71.00;;;-2.93;69.30;98700.22;5107053;28;20432;-71
2023/03/01 05:15:58;;;;;;;25.60;14.80;;;-2.50;71.50;;;-2.86;69.63;98701.44;5086129;28;20526;-72
2023/03/01 05:18:27;;;;;;;21.50;14.37;;;-2.50;71.70;;;-2.81;69.17;98697.59;5092174;28;20468;-74
2023/03/01 05:20:57;;;;;;;23.60;15.03;;;-2.40;71.50;;;-2.85;69.41;98697.00;5095713;28;20483;-70
2023/03/01 05:23:25;;;;;;;21.57;15.20;;;-2.30;71.50;;;-2.80;69.14;98699.31;5092868;28;20442;-71
2023/03/01 05:25:53;;;;;;;22.20;14.17;;;-2.30;71.30;;;-2.91;69.34;98693.00;5117861;27;20468;-70
2023/03/01 05:28:21;;;;;;;24.47;14.63;;;-2.40;71.40;;;-2.98;69.38;98689.09;5140737;27;20552;-70
2023/03/01 05:30:51;;;;;;;23.87;14.70;;;-2.50;71.50;;;-2.89;69.55;98701.66;5095431;28;20766;-70
2023/03/01 05:33:18;;;;;;;23.40;14.40;;;-2.40;71.80;;;-2.91;69.66;98692.16;5102099;28;20509;-71
2023/03/01 05:35:48;;;;;;;21.30;14.37;;;-2.40;71.70;;;-2.86;69.41;98696.16;5110192;28;20526;-70
2023/03/01 05:38:17;;;;;;;22.67;14.90;;;-2.40;71.50;;;-2.84;69.55;98696.03;5087762;28;20594;-69
2023/03/01 05:40:47;;;;;;;23.63;15.70;;;-2.30;71.60;;;-2.77;69.30;98694.63;5102118;28;20993;-68
2023/03/01 05:43:17;;;;;;;26.50;15.30;;;-2.30;71.60;;;-2.82;69.13;98693.25;5076120;28;20447;-70
2023/03/01 05:45:45;;;;;;;25.40;15.53;;;-2.30;71.50;;;-2.86;69.27;98690.03;5085475;28;20458;-72
2023/03/01 05:48:14;;;;;;;22.60;14.50;;;-2.30;71.60;;;-3.06;68.99;98665.03;5096754;27;21235;-69
2023/03/01 05:50:45;;;;;;;22.13;13.80;;;-2.30;71.50;;;-2.92;69.27;98686.03;5090669;28;20461;-71
2023/03/01 05:53:15;;;;;;;22.97;14.87;;;-2.40;71.50;;;-2.86;69.21;98682.91;5102674;27;20558;-70
2023/03/01 05:55:44;;;;;;;22.23;14.00;;;-2.40;71.60;;;-2.96;69.16;98659.91;5093035;28;20458;-69
2023/03/01 05:58:14;;;;;;;22.40;15.13;;;-2.40;71.60;;;-2.84;69.24;98690.75;5086988;28;20452;-71
2023/03/01 06:00:42;;;;;;;29.73;17.70;;;-2.40;71.50;;;-3.00;69.52;98680.44;5092546;28;20481;-69
2023/03/01 06:03:13;;;;;;;21.77;14.67;;;-2.40;71.80;;;-2.90;69.71;98689.41;5096510;27;20484;-72
2023/03/01 06:05:42;;;;;;;24.70;15.60;;;-2.40;71.70;;;-2.91;69.36;98677.13;5081430;28;20512;-70
2023/03/01 06:08:11;;;;;;;20.87;14.33;;;-2.30;71.70;;;-2.81;69.38;98673.78;5101190;27;20459;-71
2023/03/01 06:10:40;;;;;;;25.33;15.23;;;-2.30;71.60;;;-2.90;69.25;98647.09;5100638;27;21149;-69
2023/03/01 06:13:07;;;;;;;22.20;14.70;;;-2.20;71.40;;;-2.66;68.59;98674.47;5088203;28;20457;-71
2023/03/01 06:15:34;;;;;;;21.57;14.73;;;-2.20;71.10;;;-2.62;68.64;98674.13;5091988;28;20945;-68
2023/03/01 06:18:02;;;;;;;21.40;15.40;;;-2.10;71.10;;;-2.65;68.71;98671.72;5088651;28;20462;-71
2023/03/01 06:20:30;;;;;;;21.47;14.60;;;-2.10;70.90;;;-2.62;68.43;98670.63;5092625;28;20501;-71
2023/03/01 06:22:58;;;;;;;29.67;17.60;;;-2.10;70.90;;;-2.56;68.40;98672.81;5091122;28;20451;-71
2023/03/01 06:25:28;;;;;;;24.43;16.00;;;-2.00;70.70;;;-2.54;67.96;98672.69;5087221;28;20604;-68
2023/03/01 06:27:55;;;;;;;23.10;15.30;;;-2.00;70.80;;;-2.49;68.08;98671.38;5084006;28;20468;-70
2023/03/01 06:30:26;;;;;;;21.90;15.40;;;-2.00;70.80;;;-2.47;67.97;98666.81;5093990;28;20458;-72
2023/03/01 06:33:00;;;;;;;23.03;14.23;;;-2.00;70.60;;;-2.45;67.86;98642.91;5082893;28;20710;-71
2023/03/01 06:35:29;;;;;;;22.53;14.77;;;-1.90;70.60;;;-2.41;67.61;98657.56;5096568;27;20467;-69
2023/03/01 06:38:00;;;;;;;27.70;16.43;;;-1.90;70.40;;;-2.42;67.88;98656.75;5087692;28;21089;-71
2023/03/01 06:40:27;;;;;;;28.60;15.70;;;-1.90;70.50;;;-2.30;67.37;98665.53;5086299;28;20466;-69
2023/03/01 06:42:55;;;;;;;22.60;14.07;;;-1.90;70.60;;;-2.94;67.67;98566.28;5079847;28;20464;-70
2023/03/01 06:45:22;;;;;;;25.57;14.83;;;-1.90;70.50;;;-2.24;67.44;98666.03;5080237;28;20462;-69
2023/03/01 06:47:50;;;;;;;23.63;17.50;;;-1.80;70.40;;;-2.22;67.14;98656.16;5084579;28;20442;-74
2023/03/01 06:50:19;;;;;;;25.13;15.60;;;-1.80;70.40;;;-2.10;67.14;98660.50;5103662;27;20511;-72
2023/03/01 06:52:46;;;;;;;24.50;16.30;;;-1.70;70.30;;;-2.09;66.71;98664.84;5085125;28;21183;-73
2023/03/01 06:55:15;;;;;;;22.40;15.30;;;-1.70;70.10;;;-2.00;66.27;98669.44;5089499;28;20465;-73
2023/03/01 06:57:42;;;;;;;27.43;14.90;;;-1.60;69.90;;;-1.85;66.02;98653.31;5086595;27;20533;-71
2023/03/01 07:00:12;;;;;;;26.80;15.77;;;-1.50;69.90;;;-1.75;65.94;98669.31;5077373;28;20459;-72
2023/03/01 07:02:39;;;;;;;25.93;16.53;;;-1.40;69.70;;;-1.74;65.24;98660.41;5080244;28;20467;-71
2023/03/01 07:05:08;;;;;;;27.90;16.17;;;-1.40;69.60;;;-1.61;65.50;98649.66;5099871;28;20454;-69
2023/03/01 07:07:36;;;;;;;25.23;16.93;;;-1.30;69.60;;;-1.67;65.35;98661.59;5080884;28;20774;-70
2023/03/01 07:10:03;;;;;;;23.93;15.87;;;-1.20;69.10;;;-1.64;65.44;98655.22;5099896;27;20451;-70
2023/03/01 07:12:31;;;;;;;25.33;17.63;;;-1.10;68.90;;;-1.68;64.91;98657.25;5085147;28;20494;-69
2023/03/01 07:14:59;;;;;;;24.40;16.27;;;-1.00;68.60;;;-1.61;65.31;98647.00;5081644;28;20467;-71
2023/03/01 07:17:26;;;;;;;23.50;15.13;;;-1.00;68.50;;;-1.48;64.89;98658.31;5113709;27;20528;-69
2023/03/01 07:19:53;;;;;;;27.27;20.08;;;-0.90;68.20;;;-1.84;64.42;98588.75;5082271;28;20464;-72
2023/03/01 07:22:20;;;;;;;24.83;17.87;;;-0.80;67.90;;;-1.65;63.63;98590.78;5082498;28;20220;-69
2023/03/01 07:24:47;;;;;;;23.97;18.57;;;-0.70;67.80;;;-1.37;63.84;98651.31;5082600;28;20545;-71
2023/03/01 07:27:15;;;;;;;30.20;21.48;;;-0.70;67.30;;;-1.32;63.99;98627.94;5080496;28;20470;-72
2023/03/01 07:29:43;;;;;;;26.83;17.33;;;-0.60;67.30;;;-1.17;63.36;98626.69;5081430;28;20220;-73
2023/03/01 07:32:11;;;;;;;32.53;20.20;;;-0.50;67.20;;;-0.96;62.88;98633.84;5095824;28;20439;-71
2023/03/01 07:34:38;;;;;;;24.03;16.33;;;-0.50;66.80;;;-1.02;62.79;98637.84;5081666;28;20527;-71
2023/03/01 07:37:06;;;;;;;25.17;18.43;;;-0.40;66.70;;;-1.53;63.42;98562.44;5079614;28;20451;-71
2023/03/01 07:39:33;;;;;;;31.07;17.50;;;-0.40;66.50;;;-0.80;62.76;98636.06;5098850;27;21195;-70
2023/03/01 07:42:00;;;;;;;25.03;17.30;;;-0.30;66.40;;;-0.81;62.18;98646.81;5075968;28;20550;-71
2023/03/01 07:44:28;;;;;;;23.60;16.57;;;-0.30;66.10;;;-0.69;62.25;98629.84;5097857;28;20439;-73
2023/03/01 07:46:57;;;;;;;23.10;16.13;;;-0.20;66.20;;;-0.61;61.72;98632.72;5079904;28;20564;-71
2023/03/01 07:49:26;;;;;;;22.33;16.20;;;-0.10;65.60;;;-0.44;61.29;98635.75;5089703;28;20443;-71
2023/03/01 07:51:53;;;;;;;23.17;16.20;;;0.00;65.30;;;-0.38;60.81;98621.13;5080300;28;20541;-74
2023/03/01 07:54:21;;;;;;;26.43;16.90;;;0.10;65.30;;;-0.42;60.72;98620.53;5085516;27;20460;-68
2023/03/01 07:56:48;;;;;;;26.43;17.47;;;0.10;64.90;;;-0.38;60.67;98615.81;5091586;28;20550;-70
2023/03/01 07:59:15;;;;;;;31.70;18.53;;;0.20;64.30;;;-0.34;60.39;98623.41;5085740;28;20585;-69
2023/03/01 08:01:42;;;;;;;28.47;18.63;;;0.20;64.20;;;-0.41;60.39;98622.22;5081073;28;20568;-67
2023/03/01 08:04:11;;;;;;;28.83;17.33;;;0.30;63.60;;;-0.33;59.73;98621.56;5084797;28;20515;-68
2023/03/01 08:06:38;;;;;;;29.60;18.17;;;0.30;63.30;;;-0.11;60.16;98633.84;5086290;28;20470;-68
2023/03/01 08:09:06;;;;;;;27.73;17.43;;;0.40;63.50;;;0.05;59.38;98640.50;5104658;27;20509;-70
2023/03/01 08:11:33;;;;;;;25.97;16.80;;;0.60;63.30;;;-0.03;59.29;98630.53;5084850;28;20551;-69
2023/03/01 08:14:00;;;;;;;25.13;16.53;;;0.60;62.60;;;0.01;59.06;98633.78;5072482;28;20511;-67
2023/03/01 08:16:28;;;;;;;25.93;17.00;;;0.60;62.40;;;0.15;59.16;98622.78;5084596;28;20562;-68
2023/03/01 08:18:56;;;;;;;21.57;15.77;;;0.70;62.20;;;0.21;59.27;98632.03;5075221;28;20466;-70
2023/03/01 08:21:24;;;;;;;28.93;17.40;;;0.80;62.30;;;0.50;58.07;98628.66;5085951;28;20471;-68
2023/03/01 08:23:52;;;;;;;27.40;17.87;;;0.90;61.80;;;0.52;58.24;98626.69;5089586;28;20891;-69
2023/03/01 08:26:21;;;;;;;22.97;15.73;;;1.00;61.50;;;0.52;57.40;98624.03;5082633;28;21059;-66
2023/03/01 08:28:50;;;;;;;23.53;16.47;;;1.10;60.90;;;-0.14;58.03;98535.84;5083016;28;20847;-69
2023/03/01 08:31:21;;;;;;;30.00;18.47;;;1.00;60.40;;;0.59;57.95;98603.88;5080445;28;20461;-68
2023/03/01 08:33:51;;;;;;;30.17;18.03;;;1.10;60.80;;;0.65;57.29;98607.81;5080258;28;20529;-68
2023/03/01 08:36:20;;;;;;;26.33;17.90;;;1.20;60.20;;;0.55;57.16;98607.78;5104134;27;20535;-69
2023/03/01 08:38:49;;;;;;;27.10;17.63;;;1.20;59.40;;;0.48;57.28;98590.72;5082034;28;20792;-69
2023/03/01 08:41:17;;;;;;;24.53;16.70;;;1.20;59.60;;;0.76;57.06;98598.84;5075941;28;20468;-69
2023/03/01 08:43:44;;;;;;;25.40;17.53;;;1.30;59.40;;;0.72;56.77;98608.09;5103589;27;20509;-68
2023/03/01 08:46:12;;;;;;;24.47;16.30;;;1.40;59.00;;;0.76;56.21;98591.72;5075846;28;20466;-70
2023/03/01 08:48:40;;;;;;;25.73;17.23;;;1.40;58.60;;;0.84;56.15;98591.03;5077256;28;20516;-68
2023/03/01 08:51:12;;;;;;;28.43;16.13;;;1.40;58.30;;;0.83;55.51;98562.75;5093888;28;20464;-68
2023/03/01 08:53:41;;;;;;;26.30;17.40;;;1.50;57.90;;;1.18;55.53;98582.63;5084766;28;20463;-68
2023/03/01 08:56:10;;;;;;;27.77;17.17;;;1.60;58.20;;;1.39;55.08;98585.13;5086834;28;20528;-70
2023/03/01 08:58:39;;;;;;;27.13;17.93;;;1.80;58.10;;;1.50;54.88;98580.63;5085868;28;20530;-68
2023/03/01 09:01:09;;;;;;;24.80;17.47;;;1.90;57.60;;;1.63;54.55;98580.31;5089503;28;20468;-69
2023/03/01 09:03:37;;;;;;;25.30;17.00;;;2.10;57.40;;;1.87;53.79;98579.81;5102352;28;20455;-69
2023/03/01 09:06:07;;;;;;;22.67;16.57;;;2.20;57.00;;;1.84;53.41;98569.44;5126451;27;20463;-68
2023/03/01 09:08:36;;;;;;;25.60;18.70;;;2.30;56.50;;;1.80;52.99;98549.41;5084234;28;20454;-66
2023/03/01 09:11:04;;;;;;;29.33;18.47;;;2.40;56.30;;;1.75;53.42;98563.16;5082854;28;20828;-67
2023/03/01 09:13:34;;;;;;;27.10;18.10;;;2.30;55.60;;;1.77;53.73;98560.38;5086062;28;20930;-67
2023/03/01 09:16:04;;;;;;;28.23;16.93;;;2.30;55.70;;;1.87;52.81;98571.81;5094305;27;20737;-70
2023/03/01 09:18:31;;;;;;;23.70;16.80;;;2.40;55.30;;;1.92;52.53;98553.56;5084852;28;20448;-68
2023/03/01 09:21:07;;;;;;;26.70;18.00;;;2.40;55.00;;;1.96;52.32;98560.28;5102865;28;20459;-67
2023/03/01 09:23:36;;;;;;;21.43;16.77;;;2.50;54.70;;;1.77;52.67;98549.72;5080503;28;20623;-68
2023/03/01 09:26:03;;;;;;;23.93;16.67;;;2.50;54.30;;;2.03;52.63;98559.69;5078481;28;20442;-69
2023/03/01 09:28:30;;;;;;;26.23;18.70;;;2.50;54.30;;;2.11;52.27;98557.13;5089325;28;20538;-68
2023/03/01 09:31:01;;;;;;;22.83;15.27;;;2.60;54.10;;;2.25;51.12;98558.44;5082063;28;20574;-67
2023/03/01 09:33:30;;;;;;;21.90;16.50;;;2.70;53.40;;;2.31;50.82;98549.03;5082167;28;20475;-67
2023/03/01 09:35:58;;;;;;;21.40;15.77;;;2.80;53.20;;;2.41;50.91;98555.16;5089951;28;20459;-68
2023/03/01 09:38:26;;;;;;;27.60;17.10;;;2.90;53.20;;;2.11;50.83;98487.81;5074905;28;20447;-68
2023/03/01 09:40:54;;;;;;;25.10;17.13;;;2.90;52.90;;;2.69;50.60;98552.44;5110213;27;21315;-68
2023/03/01 09:43:31;;;;;;;25.67;16.90;;;3.10;53.00;;;2.67;50.28;98557.09;5120439;27;20455;-68
2023/03/01 09:46:05;;;;;;;22.67;16.13;;;3.10;52.60;;;2.82;49.63;98542.22;5098034;27;20455;-69
2023/03/01 09:48:39;;;;;;;23.40;15.73;;;3.20;52.30;;;2.75;49.59;98537.66;5115274;27;20480;-68
2023/03/01 09:51:13;;;;;;;25.40;16.70;;;3.20;51.80;;;2.87;50.19;98552.41;5083272;28;20596;-68
2023/03/01 09:53:43;;;;;;;23.63;16.63;;;3.30;52.10;;;2.89;49.05;98544.28;5094449;28;21377;-68
2023/03/01 09:56:21;;;;;;;25.00;15.50;;;3.30;51.50;;;2.92;49.38;98530.63;5103943;27;20542;-67
2023/03/01 09:58:57;;;;;;;21.03;15.07;;;3.40;51.30;;;3.06;49.18;98546.09;5083665;28;20931;-69
2023/03/01 10:01:36;;;;;;;24.77;17.00;;;3.50;51.20;;;3.21;48.96;98530.38;5084864;28;21271;-69
2023/03/01 10:04:28;;;;;;;19.90;15.20;;;3.50;51.20;;;3.28;48.83;98527.06;5103604;27;20444;-72
2023/03/01 10:07:21;;;;;;;23.23;17.03;;;3.70;51.00;;;3.27;49.00;98534.25;5085130;28;20460;-68
2023/03/01 10:09:49;;;;;;;25.57;16.67;;;3.70;50.70;;;3.22;48.32;98528.50;5084525;28;20552;-68
2023/03/01 10:12:20;;;;;;;24.73;16.43;;;3.70;50.50;;;3.39;48.07;98535.66;5093755;27;20446;-68
2023/03/01 10:14:58;;;;;;;22.87;17.97;;;3.80;50.50;;;3.33;48.08;98520.25;5089265;28;20455;-68
2023/03/01 10:17:35;;;;;;;22.17;16.60;;;3.90;50.40;;;3.49;47.88;98535.56;5082134;28;20466;-68
2023/03/01 10:20:21;;;;;;;29.63;17.93;;;3.90;50.00;;;3.60;48.08;98526.44;5087153;28;20512;-68